createdAt,value
2023-05-23T00:02:49.797Z,12.40
2023-05-23T00:05:52.248Z,12.40
2023-05-23T00:08:54.796Z,12.40
2023-05-23T00:11:57.077Z,12.30
2023-05-23T00:14:59.772Z,12.20
2023-05-23T00:18:01.933Z,12.20
2023-05-23T00:21:04.168Z,12.10
2023-05-23T00:24:06.435Z,12.10
2023-05-23T00:27:08.777Z,12.00
2023-05-23T00:30:11.228Z,12.00
2023-05-23T00:33:14.630Z,12.00
2023-05-23T00:36:17.178Z,11.90
2023-05-23T00:39:20.495Z,11.90
2023-05-23T00:42:23.527Z,11.80
2023-05-23T00:45:25.606Z,11.80
2023-05-23T00:48:28.050Z,11.70
2023-05-23T00:51:30.201Z,11.70
2023-05-23T00:54:33.208Z,11.70
2023-05-23T00:57:39.729Z,11.70
2023-05-23T01:00:45.253Z,11.70
2023-05-23T01:03:48.579Z,11.70
2023-05-23T01:06:50.833Z,11.60
2023-05-23T01:09:53.071Z,11.60
2023-05-23T01:13:07.092Z,11.60
2023-05-23T01:16:18.365Z,11.50
2023-05-23T01:19:29.445Z,11.40
2023-05-23T01:22:53.960Z,11.40
2023-05-23T01:26:23.486Z,11.40
2023-05-23T01:29:32.246Z,11.30
2023-05-23T01:32:35.519Z,11.30
2023-05-23T01:35:38.509Z,11.40
2023-05-23T01:38:40.731Z,11.40
2023-05-23T01:41:43.044Z,11.30
2023-05-23T01:44:46.081Z,11.30
2023-05-23T01:47:51.629Z,11.20
2023-05-23T01:50:54.245Z,11.10
2023-05-23T01:53:57.930Z,11.20
2023-05-23T01:57:01.525Z,11.20
2023-05-23T02:00:06.656Z,11.10
2023-05-23T02:03:08.979Z,11.10
2023-05-23T02:06:11.327Z,11.10
2023-05-23T02:09:13.539Z,11.10
2023-05-23T02:12:15.703Z,11.10
2023-05-23T02:15:17.841Z,11.10
2023-05-23T02:18:21.253Z,11.00
2023-05-23T02:21:24.091Z,10.90
2023-05-23T02:24:26.385Z,11.00
2023-05-23T02:27:28.872Z,11.00
2023-05-23T02:30:31.004Z,11.00
2023-05-23T02:33:33.150Z,10.90
2023-05-23T02:36:37.259Z,10.90
2023-05-23T02:39:39.331Z,10.90
2023-05-23T02:42:41.497Z,10.90
2023-05-23T02:45:43.754Z,10.90
2023-05-23T02:48:45.985Z,10.80
2023-05-23T02:51:48.178Z,10.70
2023-05-23T02:54:50.428Z,10.70
2023-05-23T02:57:52.753Z,10.70
2023-05-23T03:00:54.854Z,10.70
2023-05-23T03:03:57.117Z,10.60
2023-05-23T03:06:59.720Z,10.60
2023-05-23T03:10:01.998Z,10.50
2023-05-23T03:13:04.656Z,10.50
2023-05-23T03:16:07.153Z,10.50
2023-05-23T03:19:09.355Z,10.50
2023-05-23T03:22:11.568Z,10.50
2023-05-23T03:25:16.501Z,10.60
2023-05-23T03:28:18.606Z,10.60
2023-05-23T03:31:21.014Z,10.60
2023-05-23T03:34:23.968Z,10.60
2023-05-23T03:37:26.300Z,10.50
2023-05-23T03:40:28.532Z,10.60
2023-05-23T03:43:30.657Z,10.60
2023-05-23T03:46:32.915Z,10.70
2023-05-23T03:49:35.563Z,10.70
2023-05-23T03:52:37.687Z,10.80
2023-05-23T03:55:40.161Z,10.80
2023-05-23T03:58:42.585Z,10.90
2023-05-23T04:01:44.830Z,10.90
2023-05-23T04:04:47.214Z,11.00
2023-05-23T04:07:51.735Z,11.10
2023-05-23T04:10:53.899Z,11.10
2023-05-23T04:13:56.074Z,11.30
2023-05-23T04:16:58.255Z,11.40
2023-05-23T04:20:01.087Z,11.50
2023-05-23T04:23:03.296Z,11.60
2023-05-23T04:26:08.010Z,11.70
2023-05-23T04:29:12.338Z,11.90
2023-05-23T04:32:16.950Z,12.00
2023-05-23T04:35:19.121Z,12.20
2023-05-23T04:38:22.196Z,12.30
2023-05-23T04:41:24.567Z,12.50
2023-05-23T04:44:30.347Z,12.80
2023-05-23T04:47:37.288Z,13.00
2023-05-23T04:50:40.731Z,13.20
2023-05-23T04:53:43.836Z,13.50
2023-05-23T04:56:46.297Z,13.80
2023-05-23T04:59:48.287Z,13.90
2023-05-23T05:02:50.479Z,14.20
2023-05-23T05:05:53.710Z,14.50
2023-05-23T05:08:55.741Z,14.90
2023-05-23T05:11:59.348Z,15.30
2023-05-23T05:15:02.776Z,15.70
2023-05-23T05:18:04.941Z,16.10
2023-05-23T05:21:08.270Z,16.50
2023-05-23T05:24:11.143Z,16.80
2023-05-23T05:27:13.236Z,17.10
2023-05-23T05:30:15.417Z,17.40
2023-05-23T05:33:18.552Z,17.80
2023-05-23T05:36:21.699Z,18.10
2023-05-23T05:39:25.028Z,18.10
2023-05-23T05:42:27.133Z,18.20
2023-05-23T05:45:29.265Z,18.40
2023-05-23T05:48:31.556Z,18.70
2023-05-23T05:51:33.599Z,19.30
2023-05-23T05:54:36.240Z,20.00
2023-05-23T05:57:39.978Z,20.40
2023-05-23T06:00:42.827Z,20.80
2023-05-23T06:03:45.420Z,21.00
2023-05-23T06:06:47.742Z,21.10
2023-05-23T06:09:49.837Z,21.40
2023-05-23T06:12:52.160Z,21.80
2023-05-23T06:15:54.617Z,22.20
2023-05-23T06:18:56.796Z,22.60
2023-05-23T06:21:59.007Z,23.10
2023-05-23T06:25:01.037Z,23.40
2023-05-23T06:28:03.290Z,23.50
2023-05-23T06:31:05.599Z,23.80
2023-05-23T06:34:07.751Z,23.60
2023-05-23T06:37:09.872Z,23.10
2023-05-23T06:40:14.587Z,22.80
2023-05-23T06:43:16.883Z,22.90
2023-05-23T06:46:19.235Z,23.10
2023-05-23T06:49:21.508Z,23.30
2023-05-23T06:52:23.625Z,23.70
2023-05-23T06:55:25.896Z,23.80
2023-05-23T06:58:28.012Z,23.80
2023-05-23T07:01:30.195Z,24.30
2023-05-23T07:04:32.353Z,24.40
2023-05-23T07:07:34.705Z,24.50
2023-05-23T07:10:36.905Z,25.00
2023-05-23T07:13:39.052Z,24.70
2023-05-23T07:16:41.198Z,24.90
2023-05-23T07:19:43.335Z,24.90
2023-05-23T07:22:45.686Z,24.60
2023-05-23T07:26:01.106Z,25.00
2023-05-23T07:29:04.423Z,25.30
2023-05-23T07:32:06.703Z,24.90
2023-05-23T07:35:08.871Z,25.00
2023-05-23T07:38:11.133Z,24.90
2023-05-23T07:41:13.210Z,24.70
2023-05-23T07:44:15.315Z,25.20
2023-05-23T07:47:17.621Z,25.20
2023-05-23T07:50:20.136Z,25.70
2023-05-23T07:53:22.738Z,25.80
2023-05-23T07:56:24.786Z,25.60
2023-05-23T07:59:27.051Z,25.60
2023-05-23T08:02:29.251Z,25.70
2023-05-23T08:05:31.421Z,25.80
2023-05-23T08:08:33.860Z,26.10
2023-05-23T08:11:36.035Z,26.40
2023-05-23T08:14:49.963Z,26.40
2023-05-23T08:17:57.118Z,26.50
2023-05-23T08:20:59.453Z,26.30
2023-05-23T08:24:01.572Z,25.90
2023-05-23T08:27:03.760Z,26.40
2023-05-23T08:30:07.052Z,26.50
2023-05-23T08:33:09.159Z,26.60
2023-05-23T08:36:11.430Z,26.90
2023-05-23T08:39:14.253Z,26.50
2023-05-23T08:42:16.539Z,26.30
2023-05-23T08:45:19.378Z,26.80
2023-05-23T08:48:21.771Z,26.80
2023-05-23T08:51:27.362Z,26.90
2023-05-23T08:54:30.728Z,26.60
2023-05-23T08:57:33.294Z,26.40
2023-05-23T09:00:35.778Z,26.50
2023-05-23T09:03:38.318Z,26.50
2023-05-23T09:06:40.636Z,26.50
2023-05-23T09:09:42.975Z,26.50
2023-05-23T09:12:45.099Z,26.60
2023-05-23T09:16:13.400Z,27.00
2023-05-23T09:19:15.954Z,27.70
2023-05-23T09:22:26.103Z,28.00
2023-05-23T09:25:28.252Z,27.20
2023-05-23T09:28:31.425Z,26.60
2023-05-23T09:31:33.785Z,27.20
2023-05-23T09:34:36.037Z,27.90
2023-05-23T09:37:41.030Z,27.40
2023-05-23T09:40:45.767Z,27.50
2023-05-23T09:43:55.188Z,27.80
2023-05-23T09:46:57.257Z,27.70
2023-05-23T09:49:59.456Z,27.50
2023-05-23T09:53:01.847Z,28.00
2023-05-23T09:56:04.768Z,28.10
2023-05-23T09:59:08.725Z,28.30
2023-05-23T10:02:16.910Z,28.20
2023-05-23T10:05:36.549Z,28.20
2023-05-23T10:08:45.704Z,28.50
2023-05-23T10:11:59.814Z,28.80
2023-05-23T10:15:07.577Z,28.30
2023-05-23T10:18:26.505Z,28.10
2023-05-23T10:21:33.451Z,28.30
2023-05-23T10:24:36.630Z,28.60
2023-05-23T10:27:39.977Z,28.60
2023-05-23T10:30:42.303Z,28.50
2023-05-23T10:33:53.092Z,28.20
2023-05-23T10:37:05.149Z,28.20
2023-05-23T10:40:27.601Z,28.10
2023-05-23T10:43:36.744Z,28.00
2023-05-23T10:46:51.681Z,28.50
2023-05-23T10:49:55.313Z,28.60
2023-05-23T10:52:57.503Z,28.80
2023-05-23T10:55:59.758Z,28.70
2023-05-23T10:59:01.873Z,29.00
2023-05-23T11:02:10.087Z,29.40
2023-05-23T11:05:23.298Z,29.40
2023-05-23T11:08:35.488Z,29.00
2023-05-23T11:11:54.522Z,28.70
2023-05-23T11:14:56.730Z,28.40
2023-05-23T11:17:59.128Z,28.60
2023-05-23T11:21:01.803Z,28.80
2023-05-23T11:24:05.310Z,28.70
2023-05-23T11:27:12.642Z,28.90
2023-05-23T11:30:16.728Z,28.70
2023-05-23T11:33:19.058Z,28.60
2023-05-23T11:36:24.350Z,28.90
2023-05-23T11:39:26.526Z,28.80
2023-05-23T11:42:28.532Z,29.30
2023-05-23T11:45:34.509Z,29.40
2023-05-23T11:48:36.787Z,29.20
2023-05-23T11:51:39.103Z,29.60
2023-05-23T11:54:44.360Z,29.80
2023-05-23T11:57:46.428Z,29.70
2023-05-23T12:00:48.818Z,29.30
2023-05-23T12:03:52.463Z,29.50
2023-05-23T12:06:55.090Z,29.90
2023-05-23T12:09:57.524Z,29.30
2023-05-23T12:12:59.870Z,28.70
2023-05-23T12:16:03.212Z,29.00
2023-05-23T12:19:06.939Z,29.60
2023-05-23T12:22:09.093Z,30.00
2023-05-23T12:25:11.784Z,29.70
2023-05-23T12:28:14.453Z,29.20
2023-05-23T12:31:22.092Z,29.00
2023-05-23T12:34:24.444Z,29.00
2023-05-23T12:37:27.072Z,29.30
2023-05-23T12:40:29.364Z,29.80
2023-05-23T12:43:31.533Z,30.80
2023-05-23T12:46:33.703Z,30.10
2023-05-23T12:49:36.128Z,30.50
2023-05-23T12:52:38.386Z,30.30
2023-05-23T12:55:40.754Z,29.40
2023-05-23T12:58:43.891Z,29.80
2023-05-23T13:01:46.149Z,30.00
2023-05-23T13:04:48.392Z,29.10
2023-05-23T13:07:50.451Z,29.10
2023-05-23T13:10:54.387Z,29.00
2023-05-23T13:13:57.114Z,29.00
2023-05-23T13:16:59.437Z,28.80
2023-05-23T13:20:02.176Z,28.70
2023-05-23T13:23:04.402Z,28.90
2023-05-23T13:26:06.959Z,29.00
2023-05-23T13:29:09.085Z,29.20
2023-05-23T13:32:11.197Z,29.70
2023-05-23T13:35:13.520Z,29.50
2023-05-23T13:38:16.464Z,29.40
2023-05-23T13:41:18.621Z,29.20
2023-05-23T13:44:20.718Z,29.00
2023-05-23T13:47:23.291Z,29.00
2023-05-23T13:50:25.431Z,29.10
2023-05-23T13:53:27.742Z,29.20
2023-05-23T13:56:30.253Z,29.10
2023-05-23T13:59:32.352Z,28.70
2023-05-23T14:02:34.552Z,28.50
2023-05-23T14:05:36.804Z,28.60
2023-05-23T14:08:38.976Z,28.60
2023-05-23T14:11:41.206Z,28.40
2023-05-23T14:14:43.457Z,28.50
2023-05-23T14:17:45.710Z,28.70
2023-05-23T14:20:47.862Z,28.50
2023-05-23T14:23:50.117Z,28.50
2023-05-23T14:26:52.164Z,28.70
2023-05-23T14:29:54.330Z,28.30
2023-05-23T14:32:56.527Z,27.70
2023-05-23T14:35:59.225Z,27.80
2023-05-23T14:39:01.570Z,27.70
2023-05-23T14:42:03.875Z,27.60
2023-05-23T14:45:06.583Z,27.40
2023-05-23T14:48:10.235Z,27.30
2023-05-23T14:51:23.648Z,27.40
2023-05-23T14:54:29.278Z,27.40
2023-05-23T14:57:31.399Z,27.10
2023-05-23T15:00:33.567Z,26.90
2023-05-23T15:03:35.894Z,26.80
2023-05-23T15:06:39.567Z,26.80
2023-05-23T15:09:42.632Z,26.80
2023-05-23T15:12:44.711Z,26.90
2023-05-23T15:15:49.148Z,26.70
2023-05-23T15:18:51.281Z,26.80
2023-05-23T15:21:53.348Z,26.70
2023-05-23T15:24:55.459Z,26.60
2023-05-23T15:27:57.789Z,26.40
2023-05-23T15:30:59.904Z,26.40
2023-05-23T15:34:02.013Z,26.40
2023-05-23T15:37:04.511Z,26.40
2023-05-23T15:40:07.207Z,26.40
2023-05-23T15:43:09.330Z,26.50
2023-05-23T15:46:11.526Z,26.70
2023-05-23T15:49:21.740Z,26.80
2023-05-23T15:52:28.350Z,26.70
2023-05-23T15:55:30.933Z,26.70
2023-05-23T15:58:33.021Z,26.60
2023-05-23T16:01:35.321Z,26.50
2023-05-23T16:04:38.918Z,26.40
2023-05-23T16:07:41.074Z,26.40
2023-05-23T16:10:43.564Z,26.30
2023-05-23T16:13:45.722Z,26.00
2023-05-23T16:16:47.997Z,25.80
2023-05-23T16:19:50.085Z,25.70
2023-05-23T16:22:52.315Z,25.50
2023-05-23T16:25:54.455Z,25.40
2023-05-23T16:28:56.556Z,25.30
2023-05-23T16:31:58.700Z,25.20
2023-05-23T16:35:00.998Z,25.00
2023-05-23T16:38:03.261Z,24.90
2023-05-23T16:41:05.388Z,24.80
2023-05-23T16:44:07.659Z,24.60
2023-05-23T16:47:09.867Z,24.50
2023-05-23T16:50:12.345Z,24.40
2023-05-23T16:53:14.408Z,24.30
2023-05-23T16:56:16.530Z,24.30
2023-05-23T16:59:18.745Z,24.20
2023-05-23T17:02:20.871Z,24.10
2023-05-23T17:05:23.135Z,24.00
2023-05-23T17:08:25.258Z,24.00
2023-05-23T17:11:27.618Z,23.90
2023-05-23T17:14:29.974Z,23.80
2023-05-23T17:17:32.133Z,23.70
2023-05-23T17:20:34.223Z,23.70
2023-05-23T17:23:36.462Z,23.60
2023-05-23T17:26:38.765Z,23.40
2023-05-23T17:29:40.933Z,23.20
2023-05-23T17:32:43.490Z,23.00
2023-05-23T17:35:45.651Z,22.80
2023-05-23T17:38:47.789Z,22.60
2023-05-23T17:41:49.986Z,22.40
2023-05-23T17:44:52.345Z,22.30
2023-05-23T17:47:55.234Z,22.10
2023-05-23T17:50:57.479Z,22.00
2023-05-23T17:53:59.620Z,21.80
2023-05-23T17:57:02.070Z,21.70
2023-05-23T18:00:06.028Z,21.50
2023-05-23T18:03:08.278Z,21.40
2023-05-23T18:06:10.513Z,21.30
2023-05-23T18:09:12.686Z,21.10
2023-05-23T18:12:15.186Z,21.00
2023-05-23T18:15:17.424Z,20.90
2023-05-23T18:18:19.737Z,20.80
2023-05-23T18:21:21.945Z,20.70
2023-05-23T18:24:24.145Z,20.60
2023-05-23T18:27:26.807Z,20.50
2023-05-23T18:30:29.484Z,20.40
2023-05-23T18:33:32.181Z,20.30
2023-05-23T18:36:35.289Z,20.20
2023-05-23T18:39:37.784Z,20.10
2023-05-23T18:42:40.740Z,20.00
2023-05-23T18:45:44.301Z,19.90
2023-05-23T18:48:47.592Z,19.80
2023-05-23T18:51:53.283Z,19.70
2023-05-23T18:54:56.259Z,19.60
2023-05-23T18:57:59.422Z,19.60
2023-05-23T19:01:04.202Z,19.40
2023-05-23T19:04:07.755Z,19.30
2023-05-23T19:07:11.174Z,19.20
2023-05-23T19:10:14.321Z,19.10
2023-05-23T19:13:18.131Z,19.00
2023-05-23T19:16:22.723Z,19.00
2023-05-23T19:19:25.020Z,18.90
2023-05-23T19:22:36.150Z,18.80
2023-05-23T19:25:51.715Z,18.70
2023-05-23T19:28:54.277Z,18.60
2023-05-23T19:31:57.183Z,18.50
2023-05-23T19:34:59.426Z,18.40
2023-05-23T19:38:03.018Z,18.40
2023-05-23T19:41:05.494Z,18.30
2023-05-23T19:44:09.705Z,18.20
2023-05-23T19:47:12.230Z,18.20
2023-05-23T19:50:15.485Z,18.10
2023-05-23T19:53:17.782Z,18.00
2023-05-23T19:56:22.539Z,17.90
2023-05-23T19:59:24.778Z,17.90
2023-05-23T20:02:29.732Z,17.90
2023-05-23T20:05:32.388Z,17.80
2023-05-23T20:08:34.903Z,17.70
2023-05-23T20:11:37.532Z,17.60
2023-05-23T20:14:39.656Z,17.50
2023-05-23T20:17:41.802Z,17.40
2023-05-23T20:20:43.980Z,17.40
2023-05-23T20:23:46.507Z,17.30
2023-05-23T20:26:48.555Z,17.20
2023-05-23T20:29:51.413Z,17.10
2023-05-23T20:32:54.426Z,17.00
2023-05-23T20:35:56.890Z,16.90
2023-05-23T20:38:59.058Z,16.90
2023-05-23T20:42:01.242Z,16.80
2023-05-23T20:45:07.248Z,16.70
2023-05-23T20:48:09.420Z,16.60
2023-05-23T20:51:12.097Z,16.50
2023-05-23T20:54:14.175Z,16.40
2023-05-23T20:57:16.428Z,16.30
2023-05-23T21:00:18.912Z,16.20
2023-05-23T21:03:21.090Z,16.00
2023-05-23T21:06:23.294Z,16.00
2023-05-23T21:09:25.572Z,15.90
2023-05-23T21:12:28.308Z,15.80
2023-05-23T21:15:30.700Z,15.80
2023-05-23T21:18:32.829Z,15.70
2023-05-23T21:21:34.961Z,15.70
2023-05-23T21:24:37.491Z,15.60
2023-05-23T21:27:39.837Z,15.60
2023-05-23T21:30:42.146Z,15.50
2023-05-23T21:33:44.390Z,15.50
2023-05-23T21:36:46.494Z,15.40
2023-05-23T21:39:51.852Z,15.30
2023-05-23T21:42:54.604Z,15.30
2023-05-23T21:45:56.728Z,15.30
2023-05-23T21:48:59.298Z,15.40
2023-05-23T21:52:02.521Z,15.40
2023-05-23T21:55:04.935Z,15.50
2023-05-23T21:58:06.970Z,15.50
2023-05-23T22:01:09.031Z,15.50
2023-05-23T22:04:11.485Z,15.50
2023-05-23T22:07:13.591Z,15.50
2023-05-23T22:10:15.802Z,15.50
2023-05-23T22:13:17.848Z,15.50
2023-05-23T22:16:19.964Z,15.50
2023-05-23T22:19:26.264Z,15.50
2023-05-23T22:22:28.816Z,15.50
2023-05-23T22:25:32.795Z,15.50
2023-05-23T22:28:35.590Z,15.50
2023-05-23T22:31:37.666Z,15.50
2023-05-23T22:34:39.777Z,15.50
2023-05-23T22:37:41.843Z,15.40
2023-05-23T22:40:44.128Z,15.40
2023-05-23T22:43:47.002Z,15.30
2023-05-23T22:46:49.285Z,15.30
2023-05-23T22:49:56.545Z,15.30
2023-05-23T22:52:59.298Z,15.10
2023-05-23T22:56:01.496Z,15.10
2023-05-23T22:59:03.612Z,15.10
2023-05-23T23:02:06.559Z,15.10
2023-05-23T23:05:11.935Z,15.10
2023-05-23T23:08:14.149Z,15.10
2023-05-23T23:11:16.265Z,15.20
2023-05-23T23:14:19.259Z,15.10
2023-05-23T23:17:21.514Z,15.10
2023-05-23T23:20:23.743Z,15.00
2023-05-23T23:23:26.080Z,15.00
2023-05-23T23:26:28.200Z,15.00
2023-05-23T23:29:30.255Z,15.00
2023-05-23T23:32:34.175Z,15.00
2023-05-23T23:35:36.788Z,15.00
2023-05-23T23:38:38.922Z,15.00
2023-05-23T23:41:41.552Z,15.00
2023-05-23T23:44:43.845Z,14.90
2023-05-23T23:47:46.611Z,14.80
2023-05-23T23:50:48.757Z,14.80
2023-05-23T23:53:53.330Z,14.80
2023-05-23T23:56:55.964Z,14.80
2023-05-23T23:59:58.149Z,14.80
